sensor_id;sensor_type;location;lat;lon;timestamp;temperature;humidity
52267;DHT22;38223;50.940;4.034;2022-12-18T00:02:14;-0.60;99.90
52267;DHT22;38223;50.940;4.034;2022-12-18T00:04:43;-0.80;99.90
52267;DHT22;38223;50.940;4.034;2022-12-18T00:07:15;-1.00;99.90
52267;DHT22;38223;50.940;4.034;2022-12-18T00:09:48;-1.00;99.90
52267;DHT22;38223;50.940;4.034;2022-12-18T00:12:19;-0.90;99.90
52267;DHT22;38223;50.940;4.034;2022-12-18T00:14:56;-0.80;99.90
52267;DHT22;38223;50.940;4.034;2022-12-18T00:17:35;-0.90;99.90
52267;DHT22;38223;50.940;4.034;2022-12-18T00:20:05;-1.00;99.90
52267;DHT22;38223;50.940;4.034;2022-12-18T00:22:37;-1.00;99.90
52267;DHT22;38223;50.940;4.034;2022-12-18T00:25:09;-1.20;99.90
52267;DHT22;38223;50.940;4.034;2022-12-18T00:27:41;-1.30;99.90
52267;DHT22;38223;50.940;4.034;2022-12-18T00:30:14;-1.30;99.90
52267;DHT22;38223;50.940;4.034;2022-12-18T00:32:45;-1.40;99.90
52267;DHT22;38223;50.940;4.034;2022-12-18T00:35:18;-1.10;99.90
52267;DHT22;38223;50.940;4.034;2022-12-18T00:37:49;-0.80;99.90
52267;DHT22;38223;50.940;4.034;2022-12-18T00:40:21;-0.60;99.90
52267;DHT22;38223;50.940;4.034;2022-12-18T00:42:52;-0.40;99.90
52267;DHT22;38223;50.940;4.034;2022-12-18T00:45:29;-0.40;99.90
52267;DHT22;38223;50.940;4.034;2022-12-18T00:48:02;-0.70;99.90
52267;DHT22;38223;50.940;4.034;2022-12-18T00:50:39;-0.80;99.90
52267;DHT22;38223;50.940;4.034;2022-12-18T00:53:12;-0.80;99.90
52267;DHT22;38223;50.940;4.034;2022-12-18T00:55:41;-1.00;99.90
52267;DHT22;38223;50.940;4.034;2022-12-18T00:58:14;-1.00;99.90
52267;DHT22;38223;50.940;4.034;2022-12-18T01:00:50;-1.10;99.90
52267;DHT22;38223;50.940;4.034;2022-12-18T01:03:22;-1.00;99.90
52267;DHT22;38223;50.940;4.034;2022-12-18T01:05:52;-1.10;99.90
52267;DHT22;38223;50.940;4.034;2022-12-18T01:08:22;-1.00;99.90
52267;DHT22;38223;50.940;4.034;2022-12-18T01:10:54;-1.00;99.90
52267;DHT22;38223;50.940;4.034;2022-12-18T01:13:27;-0.90;99.90
52267;DHT22;38223;50.940;4.034;2022-12-18T01:15:56;-0.90;99.90
52267;DHT22;38223;50.940;4.034;2022-12-18T01:18:26;-1.00;99.90
52267;DHT22;38223;50.940;4.034;2022-12-18T01:20:54;-1.10;99.90
52267;DHT22;38223;50.940;4.034;2022-12-18T01:23:24;-1.10;99.90
52267;DHT22;38223;50.940;4.034;2022-12-18T01:25:55;-1.10;99.90
52267;DHT22;38223;50.940;4.034;2022-12-18T01:28:26;-1.10;99.90
52267;DHT22;38223;50.940;4.034;2022-12-18T01:31:22;-1.20;99.90
52267;DHT22;38223;50.940;4.034;2022-12-18T01:33:32;-1.20;99.90
52267;DHT22;38223;50.940;4.034;2022-12-18T01:36:01;-1.30;99.90
52267;DHT22;38223;50.940;4.034;2022-12-18T01:38:30;-1.30;99.90
52267;DHT22;38223;50.940;4.034;2022-12-18T01:41:08;-1.50;99.90
52267;DHT22;38223;50.940;4.034;2022-12-18T01:46:24;-1.60;99.90
52267;DHT22;38223;50.940;4.034;2022-12-18T01:49:00;-1.60;99.90
52267;DHT22;38223;50.940;4.034;2022-12-18T01:51:31;-1.60;99.90
52267;DHT22;38223;50.940;4.034;2022-12-18T01:54:04;-1.60;99.90
52267;DHT22;38223;50.940;4.034;2022-12-18T01:56:38;-1.60;99.90
52267;DHT22;38223;50.940;4.034;2022-12-18T01:59:13;-1.70;99.90
52267;DHT22;38223;50.940;4.034;2022-12-18T02:01:43;-1.60;99.90
52267;DHT22;38223;50.940;4.034;2022-12-18T02:04:22;-1.60;99.90
52267;DHT22;38223;50.940;4.034;2022-12-18T02:07:10;-1.90;99.90
52267;DHT22;38223;50.940;4.034;2022-12-18T02:09:49;-2.00;99.90
52267;DHT22;38223;50.940;4.034;2022-12-18T02:12:34;-2.20;99.90
52267;DHT22;38223;50.940;4.034;2022-12-18T02:15:07;-2.30;99.90
52267;DHT22;38223;50.940;4.034;2022-12-18T02:17:52;-2.30;99.90
52267;DHT22;38223;50.940;4.034;2022-12-18T02:20:36;-2.40;99.90
52267;DHT22;38223;50.940;4.034;2022-12-18T02:26:07;-2.20;99.90
52267;DHT22;38223;50.940;4.034;2022-12-18T02:28:41;-2.00;99.90
52267;DHT22;38223;50.940;4.034;2022-12-18T02:31:11;-1.80;99.90
52267;DHT22;38223;50.940;4.034;2022-12-18T02:33:41;-1.70;99.90
52267;DHT22;38223;50.940;4.034;2022-12-18T02:36:16;-1.80;99.90
52267;DHT22;38223;50.940;4.034;2022-12-18T02:38:51;-1.80;99.90
52267;DHT22;38223;50.940;4.034;2022-12-18T02:41:23;-1.90;99.90
52267;DHT22;38223;50.940;4.034;2022-12-18T02:43:56;-1.90;99.90
52267;DHT22;38223;50.940;4.034;2022-12-18T02:46:54;-1.90;99.90
52267;DHT22;38223;50.940;4.034;2022-12-18T02:49:37;-2.00;99.90
52267;DHT22;38223;50.940;4.034;2022-12-18T02:52:25;-2.00;99.90
52267;DHT22;38223;50.940;4.034;2022-12-18T02:57:54;-1.90;99.90
52267;DHT22;38223;50.940;4.034;2022-12-18T03:00:34;-1.90;99.90
52267;DHT22;38223;50.940;4.034;2022-12-18T03:03:11;-2.20;99.90
52267;DHT22;38223;50.940;4.034;2022-12-18T03:05:52;-2.20;99.90
52267;DHT22;38223;50.940;4.034;2022-12-18T03:08:30;-2.30;99.90
52267;DHT22;38223;50.940;4.034;2022-12-18T03:11:12;-2.30;99.90
52267;DHT22;38223;50.940;4.034;2022-12-18T03:13:46;-2.10;99.90
52267;DHT22;38223;50.940;4.034;2022-12-18T03:16:21;-2.20;99.90
52267;DHT22;38223;50.940;4.034;2022-12-18T03:19:05;-2.10;99.90
52267;DHT22;38223;50.940;4.034;2022-12-18T03:21:43;-2.00;99.90
52267;DHT22;38223;50.940;4.034;2022-12-18T03:24:10;-2.00;99.90
52267;DHT22;38223;50.940;4.034;2022-12-18T03:26:44;-2.00;99.90
52267;DHT22;38223;50.940;4.034;2022-12-18T03:29:33;-2.00;99.90
52267;DHT22;38223;50.940;4.034;2022-12-18T03:32:21;-2.00;99.90
52267;DHT22;38223;50.940;4.034;2022-12-18T03:34:49;-2.00;99.90
52267;DHT22;38223;50.940;4.034;2022-12-18T03:37:25;-2.20;99.90
52267;DHT22;38223;50.940;4.034;2022-12-18T03:39:56;-2.30;99.90
52267;DHT22;38223;50.940;4.034;2022-12-18T03:42:42;-2.40;99.90
52267;DHT22;38223;50.940;4.034;2022-12-18T03:45:26;-2.50;99.90
52267;DHT22;38223;50.940;4.034;2022-12-18T03:48:18;-2.40;99.90
52267;DHT22;38223;50.940;4.034;2022-12-18T03:51:00;-2.50;99.90
52267;DHT22;38223;50.940;4.034;2022-12-18T03:53:39;-2.50;99.90
52267;DHT22;38223;50.940;4.034;2022-12-18T03:56:11;-2.60;99.90
52267;DHT22;38223;50.940;4.034;2022-12-18T03:58:44;-2.70;99.90
52267;DHT22;38223;50.940;4.034;2022-12-18T04:01:15;-2.70;99.90
52267;DHT22;38223;50.940;4.034;2022-12-18T04:03:50;-2.60;99.90
52267;DHT22;38223;50.940;4.034;2022-12-18T04:06:23;-2.60;99.90
52267;DHT22;38223;50.940;4.034;2022-12-18T04:08:52;-2.50;99.90
52267;DHT22;38223;50.940;4.034;2022-12-18T04:11:23;-2.50;99.90
52267;DHT22;38223;50.940;4.034;2022-12-18T04:13:56;-2.50;99.90
52267;DHT22;38223;50.940;4.034;2022-12-18T04:16:26;-2.60;99.90
52267;DHT22;38223;50.940;4.034;2022-12-18T04:19:00;-2.60;99.90
52267;DHT22;38223;50.940;4.034;2022-12-18T04:21:35;-2.60;99.90
52267;DHT22;38223;50.940;4.034;2022-12-18T04:24:05;-2.70;99.90
52267;DHT22;38223;50.940;4.034;2022-12-18T04:26:38;-2.70;99.90
52267;DHT22;38223;50.940;4.034;2022-12-18T04:29:15;-2.70;99.90
52267;DHT22;38223;50.940;4.034;2022-12-18T04:31:46;-2.70;99.90
52267;DHT22;38223;50.940;4.034;2022-12-18T04:34:18;-2.70;99.90
52267;DHT22;38223;50.940;4.034;2022-12-18T04:36:53;-2.80;99.90
52267;DHT22;38223;50.940;4.034;2022-12-18T04:39:22;-2.90;99.90
52267;DHT22;38223;50.940;4.034;2022-12-18T04:41:55;-2.90;99.90
52267;DHT22;38223;50.940;4.034;2022-12-18T04:44:23;-3.00;99.90
52267;DHT22;38223;50.940;4.034;2022-12-18T04:46:53;-3.00;99.90
52267;DHT22;38223;50.940;4.034;2022-12-18T04:49:27;-3.00;99.90
52267;DHT22;38223;50.940;4.034;2022-12-18T04:52:01;-3.00;99.90
52267;DHT22;38223;50.940;4.034;2022-12-18T04:54:36;-3.00;99.90
52267;DHT22;38223;50.940;4.034;2022-12-18T04:57:07;-2.90;99.90
52267;DHT22;38223;50.940;4.034;2022-12-18T04:59:39;-2.90;99.90
52267;DHT22;38223;50.940;4.034;2022-12-18T05:02:15;-2.90;99.90
52267;DHT22;38223;50.940;4.034;2022-12-18T05:04:44;-3.20;99.90
52267;DHT22;38223;50.940;4.034;2022-12-18T05:07:19;-3.40;99.90
52267;DHT22;38223;50.940;4.034;2022-12-18T05:09:51;-3.50;99.90
52267;DHT22;38223;50.940;4.034;2022-12-18T05:12:24;-3.70;99.90
52267;DHT22;38223;50.940;4.034;2022-12-18T05:14:56;-3.70;99.90
52267;DHT22;38223;50.940;4.034;2022-12-18T05:17:27;-3.70;99.90
52267;DHT22;38223;50.940;4.034;2022-12-18T05:19:56;-3.60;99.90
52267;DHT22;38223;50.940;4.034;2022-12-18T05:22:27;-3.40;99.90
52267;DHT22;38223;50.940;4.034;2022-12-18T05:24:59;-3.30;99.90
52267;DHT22;38223;50.940;4.034;2022-12-18T05:27:32;-3.10;99.90
52267;DHT22;38223;50.940;4.034;2022-12-18T05:30:05;-3.00;99.90
52267;DHT22;38223;50.940;4.034;2022-12-18T05:32:36;-2.90;99.90
52267;DHT22;38223;50.940;4.034;2022-12-18T05:35:10;-2.80;99.90
52267;DHT22;38223;50.940;4.034;2022-12-18T05:37:44;-3.10;99.90
52267;DHT22;38223;50.940;4.034;2022-12-18T05:40:19;-3.00;99.90
52267;DHT22;38223;50.940;4.034;2022-12-18T05:42:50;-2.90;99.90
52267;DHT22;38223;50.940;4.034;2022-12-18T05:45:21;-2.60;99.90
52267;DHT22;38223;50.940;4.034;2022-12-18T05:47:52;-2.40;99.90
52267;DHT22;38223;50.940;4.034;2022-12-18T05:50:21;-2.20;99.90
52267;DHT22;38223;50.940;4.034;2022-12-18T05:52:50;-1.70;99.90
52267;DHT22;38223;50.940;4.034;2022-12-18T05:55:21;-1.40;99.90
52267;DHT22;38223;50.940;4.034;2022-12-18T05:57:53;-1.50;99.90
52267;DHT22;38223;50.940;4.034;2022-12-18T06:00:28;-1.80;99.90
52267;DHT22;38223;50.940;4.034;2022-12-18T06:03:00;-2.10;99.90
52267;DHT22;38223;50.940;4.034;2022-12-18T06:05:44;-2.20;99.90
52267;DHT22;38223;50.940;4.034;2022-12-18T06:08:19;-2.40;99.90
52267;DHT22;38223;50.940;4.034;2022-12-18T06:10:53;-2.50;99.90
52267;DHT22;38223;50.940;4.034;2022-12-18T06:13:23;-2.60;99.90
52267;DHT22;38223;50.940;4.034;2022-12-18T06:15:55;-2.70;99.90
52267;DHT22;38223;50.940;4.034;2022-12-18T06:18:29;-2.60;99.90
52267;DHT22;38223;50.940;4.034;2022-12-18T06:21:02;-2.40;99.90
52267;DHT22;38223;50.940;4.034;2022-12-18T06:23:33;-2.50;99.90
52267;DHT22;38223;50.940;4.034;2022-12-18T06:26:09;-2.50;99.90
52267;DHT22;38223;50.940;4.034;2022-12-18T06:28:36;-2.50;99.90
52267;DHT22;38223;50.940;4.034;2022-12-18T06:31:08;-2.50;99.90
52267;DHT22;38223;50.940;4.034;2022-12-18T06:33:39;-2.60;99.90
52267;DHT22;38223;50.940;4.034;2022-12-18T06:36:12;-2.60;99.90
52267;DHT22;38223;50.940;4.034;2022-12-18T06:38:47;-2.50;99.90
52267;DHT22;38223;50.940;4.034;2022-12-18T06:41:20;-2.50;99.90
52267;DHT22;38223;50.940;4.034;2022-12-18T06:43:55;-2.40;99.90
52267;DHT22;38223;50.940;4.034;2022-12-18T06:46:27;-2.30;99.90
52267;DHT22;38223;50.940;4.034;2022-12-18T06:48:56;-2.30;99.90
52267;DHT22;38223;50.940;4.034;2022-12-18T06:51:28;-2.20;99.90
52267;DHT22;38223;50.940;4.034;2022-12-18T06:53:59;-2.20;99.90
52267;DHT22;38223;50.940;4.034;2022-12-18T06:56:32;-2.30;99.90
52267;DHT22;38223;50.940;4.034;2022-12-18T06:59:01;-2.10;99.90
52267;DHT22;38223;50.940;4.034;2022-12-18T07:01:35;-2.00;99.90
52267;DHT22;38223;50.940;4.034;2022-12-18T07:04:06;-2.00;99.90
52267;DHT22;38223;50.940;4.034;2022-12-18T07:06:36;-2.00;99.90
52267;DHT22;38223;50.940;4.034;2022-12-18T07:09:11;-1.90;99.90
52267;DHT22;38223;50.940;4.034;2022-12-18T07:11:42;-1.60;99.90
52267;DHT22;38223;50.940;4.034;2022-12-18T07:14:12;-1.30;99.90
52267;DHT22;38223;50.940;4.034;2022-12-18T07:16:45;-1.30;99.90
52267;DHT22;38223;50.940;4.034;2022-12-18T07:19:17;-1.40;99.90
52267;DHT22;38223;50.940;4.034;2022-12-18T07:21:51;-1.70;99.90
52267;DHT22;38223;50.940;4.034;2022-12-18T07:24:24;-1.70;99.90
52267;DHT22;38223;50.940;4.034;2022-12-18T07:27:02;-1.60;99.90
52267;DHT22;38223;50.940;4.034;2022-12-18T07:29:30;-1.60;99.90
52267;DHT22;38223;50.940;4.034;2022-12-18T07:32:04;-1.80;99.90
52267;DHT22;38223;50.940;4.034;2022-12-18T07:34:35;-1.90;99.90
52267;DHT22;38223;50.940;4.034;2022-12-18T07:37:09;-1.80;99.90
52267;DHT22;38223;50.940;4.034;2022-12-18T07:39:39;-1.80;99.90
52267;DHT22;38223;50.940;4.034;2022-12-18T07:42:10;-1.60;99.90
52267;DHT22;38223;50.940;4.034;2022-12-18T07:44:59;-1.60;99.90
52267;DHT22;38223;50.940;4.034;2022-12-18T07:47:30;-1.70;99.90
52267;DHT22;38223;50.940;4.034;2022-12-18T07:50:05;-1.80;99.90
52267;DHT22;38223;50.940;4.034;2022-12-18T07:52:41;-1.80;99.90
52267;DHT22;38223;50.940;4.034;2022-12-18T07:55:11;-1.90;99.90
52267;DHT22;38223;50.940;4.034;2022-12-18T07:57:46;-1.80;99.90
52267;DHT22;38223;50.940;4.034;2022-12-18T08:00:18;-1.70;99.90
52267;DHT22;38223;50.940;4.034;2022-12-18T08:02:50;-1.60;99.90
52267;DHT22;38223;50.940;4.034;2022-12-18T08:05:26;-1.80;99.90
52267;DHT22;38223;50.940;4.034;2022-12-18T08:08:01;-1.70;99.90
52267;DHT22;38223;50.940;4.034;2022-12-18T08:10:33;-1.80;99.90
52267;DHT22;38223;50.940;4.034;2022-12-18T08:13:07;-1.90;99.90
52267;DHT22;38223;50.940;4.034;2022-12-18T08:15:39;-1.80;99.90
52267;DHT22;38223;50.940;4.034;2022-12-18T08:18:10;-1.60;99.90
52267;DHT22;38223;50.940;4.034;2022-12-18T08:20:41;-1.10;99.90
52267;DHT22;38223;50.940;4.034;2022-12-18T08:23:13;-0.70;99.90
52267;DHT22;38223;50.940;4.034;2022-12-18T08:25:48;-0.60;99.90
52267;DHT22;38223;50.940;4.034;2022-12-18T08:28:18;-0.40;99.90
52267;DHT22;38223;50.940;4.034;2022-12-18T08:30:52;-0.20;99.90
52267;DHT22;38223;50.940;4.034;2022-12-18T08:33:22;-0.10;99.90
52267;DHT22;38223;50.940;4.034;2022-12-18T08:35:57;-0.30;99.90
52267;DHT22;38223;50.940;4.034;2022-12-18T08:38:31;-0.40;99.90
52267;DHT22;38223;50.940;4.034;2022-12-18T08:41:09;-0.40;99.90
52267;DHT22;38223;50.940;4.034;2022-12-18T08:43:40;-0.80;99.90
52267;DHT22;38223;50.940;4.034;2022-12-18T08:46:36;-1.10;99.90
52267;DHT22;38223;50.940;4.034;2022-12-18T08:49:06;-1.10;99.90
52267;DHT22;38223;50.940;4.034;2022-12-18T08:51:41;-0.80;99.90
52267;DHT22;38223;50.940;4.034;2022-12-18T08:54:13;-0.30;99.90
52267;DHT22;38223;50.940;4.034;2022-12-18T08:56:48;-0.20;99.90
52267;DHT22;38223;50.940;4.034;2022-12-18T08:59:17;0.00;99.90
52267;DHT22;38223;50.940;4.034;2022-12-18T09:01:50;0.10;99.90
52267;DHT22;38223;50.940;4.034;2022-12-18T09:04:23;0.20;99.90
52267;DHT22;38223;50.940;4.034;2022-12-18T09:06:55;0.20;99.90
52267;DHT22;38223;50.940;4.034;2022-12-18T09:09:26;0.10;99.90
52267;DHT22;38223;50.940;4.034;2022-12-18T09:11:59;0.20;99.90
52267;DHT22;38223;50.940;4.034;2022-12-18T09:14:34;0.40;99.90
52267;DHT22;38223;50.940;4.034;2022-12-18T09:17:05;0.20;99.90
52267;DHT22;38223;50.940;4.034;2022-12-18T09:19:39;0.20;99.90
52267;DHT22;38223;50.940;4.034;2022-12-18T09:22:11;0.20;99.90
52267;DHT22;38223;50.940;4.034;2022-12-18T09:24:42;-0.20;99.90
52267;DHT22;38223;50.940;4.034;2022-12-18T09:27:20;0.00;99.90
52267;DHT22;38223;50.940;4.034;2022-12-18T09:29:51;0.30;99.90
52267;DHT22;38223;50.940;4.034;2022-12-18T09:32:22;0.40;99.90
52267;DHT22;38223;50.940;4.034;2022-12-18T09:34:54;0.30;99.90
52267;DHT22;38223;50.940;4.034;2022-12-18T09:37:25;0.40;99.90
52267;DHT22;38223;50.940;4.034;2022-12-18T09:40:05;0.50;99.90
52267;DHT22;38223;50.940;4.034;2022-12-18T09:42:36;0.30;99.90
52267;DHT22;38223;50.940;4.034;2022-12-18T09:45:11;0.20;99.90
52267;DHT22;38223;50.940;4.034;2022-12-18T09:47:42;0.30;99.90
52267;DHT22;38223;50.940;4.034;2022-12-18T09:50:33;0.60;99.90
52267;DHT22;38223;50.940;4.034;2022-12-18T09:53:12;0.40;99.90
52267;DHT22;38223;50.940;4.034;2022-12-18T09:55:42;0.30;99.90
52267;DHT22;38223;50.940;4.034;2022-12-18T10:00:55;0.60;99.90
52267;DHT22;38223;50.940;4.034;2022-12-18T10:03:31;0.60;99.90
52267;DHT22;38223;50.940;4.034;2022-12-18T10:11:57;1.00;99.90
52267;DHT22;38223;50.940;4.034;2022-12-18T10:20:16;1.00;99.90
52267;DHT22;38223;50.940;4.034;2022-12-18T10:23:02;1.10;99.90
52267;DHT22;38223;50.940;4.034;2022-12-18T10:25:43;1.20;99.90
52267;DHT22;38223;50.940;4.034;2022-12-18T10:28:15;1.20;99.90
52267;DHT22;38223;50.940;4.034;2022-12-18T10:30:49;1.20;99.90
52267;DHT22;38223;50.940;4.034;2022-12-18T10:33:32;1.20;99.90
52267;DHT22;38223;50.940;4.034;2022-12-18T10:36:02;1.20;99.90
52267;DHT22;38223;50.940;4.034;2022-12-18T10:38:36;1.10;99.90
52267;DHT22;38223;50.940;4.034;2022-12-18T10:41:23;1.10;99.90
52267;DHT22;38223;50.940;4.034;2022-12-18T10:44:11;1.10;99.90
52267;DHT22;38223;50.940;4.034;2022-12-18T10:46:46;1.00;99.90
52267;DHT22;38223;50.940;4.034;2022-12-18T10:49:25;1.00;99.90
52267;DHT22;38223;50.940;4.034;2022-12-18T10:54:48;1.10;99.90
52267;DHT22;38223;50.940;4.034;2022-12-18T10:57:38;1.10;99.90
52267;DHT22;38223;50.940;4.034;2022-12-18T11:03:45;1.10;99.90
52267;DHT22;38223;50.940;4.034;2022-12-18T11:05:49;0.90;99.90
52267;DHT22;38223;50.940;4.034;2022-12-18T11:08:22;1.00;99.90
52267;DHT22;38223;50.940;4.034;2022-12-18T11:10:56;1.30;99.90
52267;DHT22;38223;50.940;4.034;2022-12-18T11:13:30;1.60;99.90
52267;DHT22;38223;50.940;4.034;2022-12-18T11:16:04;1.70;99.90
52267;DHT22;38223;50.940;4.034;2022-12-18T11:18:36;1.80;99.90
52267;DHT22;38223;50.940;4.034;2022-12-18T11:21:09;1.70;99.90
52267;DHT22;38223;50.940;4.034;2022-12-18T11:23:47;1.70;99.90
52267;DHT22;38223;50.940;4.034;2022-12-18T11:26:16;1.70;99.90
52267;DHT22;38223;50.940;4.034;2022-12-18T11:28:52;1.60;99.90
52267;DHT22;38223;50.940;4.034;2022-12-18T11:31:32;1.60;99.90
52267;DHT22;38223;50.940;4.034;2022-12-18T11:34:22;1.70;99.90
52267;DHT22;38223;50.940;4.034;2022-12-18T11:36:52;1.70;99.90
52267;DHT22;38223;50.940;4.034;2022-12-18T11:39:42;1.50;99.90
52267;DHT22;38223;50.940;4.034;2022-12-18T11:42:34;1.60;99.90
52267;DHT22;38223;50.940;4.034;2022-12-18T11:45:20;1.60;99.90
52267;DHT22;38223;50.940;4.034;2022-12-18T11:53:11;1.50;99.90
52267;DHT22;38223;50.940;4.034;2022-12-18T11:55:49;1.60;99.90
52267;DHT22;38223;50.940;4.034;2022-12-18T11:58:29;1.70;99.90
52267;DHT22;38223;50.940;4.034;2022-12-18T12:10:10;2.60;99.90
52267;DHT22;38223;50.940;4.034;2022-12-18T12:15:39;2.50;99.90
52267;DHT22;38223;50.940;4.034;2022-12-18T12:21:27;2.50;99.90
52267;DHT22;38223;50.940;4.034;2022-12-18T12:29:45;2.30;99.90
52267;DHT22;38223;50.940;4.034;2022-12-18T12:40:37;2.00;99.90
52267;DHT22;38223;50.940;4.034;2022-12-18T12:43:32;1.90;99.90
52267;DHT22;38223;50.940;4.034;2022-12-18T12:48:33;1.70;99.90
52267;DHT22;38223;50.940;4.034;2022-12-18T12:51:12;1.70;99.90
52267;DHT22;38223;50.940;4.034;2022-12-18T12:53:42;1.70;99.90
52267;DHT22;38223;50.940;4.034;2022-12-18T12:56:16;1.70;99.90
52267;DHT22;38223;50.940;4.034;2022-12-18T13:00:07;1.80;99.90
52267;DHT22;38223;50.940;4.034;2022-12-18T13:05:04;2.00;99.90
52267;DHT22;38223;50.940;4.034;2022-12-18T13:08:02;1.90;99.90
52267;DHT22;38223;50.940;4.034;2022-12-18T13:10:41;1.80;99.90
52267;DHT22;38223;50.940;4.034;2022-12-18T13:13:15;1.80;99.90
52267;DHT22;38223;50.940;4.034;2022-12-18T13:16:06;1.80;99.90
52267;DHT22;38223;50.940;4.034;2022-12-18T13:18:34;1.90;99.90
52267;DHT22;38223;50.940;4.034;2022-12-18T13:21:32;2.00;99.90
52267;DHT22;38223;50.940;4.034;2022-12-18T13:24:24;2.10;99.90
52267;DHT22;38223;50.940;4.034;2022-12-18T13:26:57;2.20;99.90
52267;DHT22;38223;50.940;4.034;2022-12-18T13:29:45;2.10;99.90
52267;DHT22;38223;50.940;4.034;2022-12-18T13:32:25;2.10;99.90
52267;DHT22;38223;50.940;4.034;2022-12-18T13:37:55;2.00;99.90
52267;DHT22;38223;50.940;4.034;2022-12-18T13:43:26;1.90;99.90
52267;DHT22;38223;50.940;4.034;2022-12-18T13:46:30;2.00;99.90
52267;DHT22;38223;50.940;4.034;2022-12-18T13:49:20;2.00;99.90
52267;DHT22;38223;50.940;4.034;2022-12-18T13:51:52;2.10;99.90
52267;DHT22;38223;50.940;4.034;2022-12-18T13:54:39;2.20;99.90
52267;DHT22;38223;50.940;4.034;2022-12-18T13:57:35;2.20;99.90
52267;DHT22;38223;50.940;4.034;2022-12-18T14:00:27;2.20;99.90
52267;DHT22;38223;50.940;4.034;2022-12-18T14:03:15;2.20;99.90
52267;DHT22;38223;50.940;4.034;2022-12-18T14:05:45;2.20;99.90
52267;DHT22;38223;50.940;4.034;2022-12-18T14:08:22;2.00;99.90
52267;DHT22;38223;50.940;4.034;2022-12-18T14:10:54;2.00;99.90
52267;DHT22;38223;50.940;4.034;2022-12-18T14:13:33;1.90;99.90
52267;DHT22;38223;50.940;4.034;2022-12-18T14:16:03;1.70;99.90
52267;DHT22;38223;50.940;4.034;2022-12-18T14:18:44;1.70;99.90
52267;DHT22;38223;50.940;4.034;2022-12-18T14:21:21;1.80;99.90
52267;DHT22;38223;50.940;4.034;2022-12-18T14:23:47;1.80;99.90
52267;DHT22;38223;50.940;4.034;2022-12-18T14:26:27;1.70;99.90
52267;DHT22;38223;50.940;4.034;2022-12-18T14:29:18;1.70;99.90
52267;DHT22;38223;50.940;4.034;2022-12-18T14:31:34;1.60;99.90
52267;DHT22;38223;50.940;4.034;2022-12-18T14:34:08;1.50;99.90
52267;DHT22;38223;50.940;4.034;2022-12-18T14:36:39;1.50;99.90
52267;DHT22;38223;50.940;4.034;2022-12-18T14:39:13;1.50;99.90
52267;DHT22;38223;50.940;4.034;2022-12-18T14:41:42;1.50;99.90
52267;DHT22;38223;50.940;4.034;2022-12-18T14:44:18;1.50;99.90
52267;DHT22;38223;50.940;4.034;2022-12-18T14:47:12;1.50;99.90
52267;DHT22;38223;50.940;4.034;2022-12-18T14:49:45;1.50;99.90
52267;DHT22;38223;50.940;4.034;2022-12-18T14:52:28;1.50;99.90
52267;DHT22;38223;50.940;4.034;2022-12-18T14:54:58;1.50;99.90
52267;DHT22;38223;50.940;4.034;2022-12-18T14:57:35;1.50;99.90
52267;DHT22;38223;50.940;4.034;2022-12-18T15:00:17;1.40;99.90
52267;DHT22;38223;50.940;4.034;2022-12-18T15:02:48;1.40;99.90
52267;DHT22;38223;50.940;4.034;2022-12-18T15:05:31;1.30;99.90
52267;DHT22;38223;50.940;4.034;2022-12-18T15:08:24;1.30;99.90
52267;DHT22;38223;50.940;4.034;2022-12-18T15:10:46;1.40;99.90
52267;DHT22;38223;50.940;4.034;2022-12-18T15:13:34;1.40;99.90
52267;DHT22;38223;50.940;4.034;2022-12-18T15:16:07;1.50;99.90
52267;DHT22;38223;50.940;4.034;2022-12-18T15:18:42;1.60;99.90
52267;DHT22;38223;50.940;4.034;2022-12-18T15:21:19;1.60;99.90
52267;DHT22;38223;50.940;4.034;2022-12-18T15:23:54;1.60;99.90
52267;DHT22;38223;50.940;4.034;2022-12-18T15:26:27;1.70;99.90
52267;DHT22;38223;50.940;4.034;2022-12-18T15:29:01;1.80;99.90
52267;DHT22;38223;50.940;4.034;2022-12-18T15:31:34;1.90;99.90
52267;DHT22;38223;50.940;4.034;2022-12-18T15:34:20;1.90;99.90
52267;DHT22;38223;50.940;4.034;2022-12-18T15:36:54;1.90;99.90
52267;DHT22;38223;50.940;4.034;2022-12-18T15:39:23;2.00;99.90
52267;DHT22;38223;50.940;4.034;2022-12-18T15:41:55;1.90;99.90
52267;DHT22;38223;50.940;4.034;2022-12-18T15:44:43;1.90;99.90
52267;DHT22;38223;50.940;4.034;2022-12-18T15:47:17;1.90;99.90
52267;DHT22;38223;50.940;4.034;2022-12-18T15:49:46;1.90;99.90
52267;DHT22;38223;50.940;4.034;2022-12-18T15:52:22;1.90;99.90
52267;DHT22;38223;50.940;4.034;2022-12-18T15:54:55;2.00;99.90
52267;DHT22;38223;50.940;4.034;2022-12-18T15:57:41;2.00;99.90
52267;DHT22;38223;50.940;4.034;2022-12-18T16:00:15;2.00;99.90
52267;DHT22;38223;50.940;4.034;2022-12-18T16:02:45;2.00;99.90
52267;DHT22;38223;50.940;4.034;2022-12-18T16:05:20;2.00;99.90
52267;DHT22;38223;50.940;4.034;2022-12-18T16:07:53;2.00;99.90
52267;DHT22;38223;50.940;4.034;2022-12-18T16:10:25;2.00;99.90
52267;DHT22;38223;50.940;4.034;2022-12-18T16:12:58;1.90;99.90
52267;DHT22;38223;50.940;4.034;2022-12-18T16:15:33;1.90;99.90
52267;DHT22;38223;50.940;4.034;2022-12-18T16:18:04;1.90;99.90
52267;DHT22;38223;50.940;4.034;2022-12-18T16:20:45;2.00;99.90
52267;DHT22;38223;50.940;4.034;2022-12-18T16:23:18;2.00;99.90
52267;DHT22;38223;50.940;4.034;2022-12-18T16:25:52;2.00;99.90
52267;DHT22;38223;50.940;4.034;2022-12-18T16:28:28;2.00;99.90
52267;DHT22;38223;50.940;4.034;2022-12-18T16:30:57;2.10;99.90
52267;DHT22;38223;50.940;4.034;2022-12-18T16:33:30;2.20;99.90
52267;DHT22;38223;50.940;4.034;2022-12-18T16:36:03;2.20;99.90
52267;DHT22;38223;50.940;4.034;2022-12-18T16:38:38;2.20;99.90
52267;DHT22;38223;50.940;4.034;2022-12-18T16:41:20;2.20;99.90
52267;DHT22;38223;50.940;4.034;2022-12-18T16:44:01;2.20;99.90
52267;DHT22;38223;50.940;4.034;2022-12-18T16:46:36;2.20;99.90
52267;DHT22;38223;50.940;4.034;2022-12-18T16:49:07;2.20;99.90
52267;DHT22;38223;50.940;4.034;2022-12-18T16:51:39;2.30;99.90
52267;DHT22;38223;50.940;4.034;2022-12-18T16:54:13;2.30;99.90
52267;DHT22;38223;50.940;4.034;2022-12-18T16:56:45;2.20;99.90
52267;DHT22;38223;50.940;4.034;2022-12-18T16:59:22;2.20;99.90
52267;DHT22;38223;50.940;4.034;2022-12-18T17:01:53;2.20;99.90
52267;DHT22;38223;50.940;4.034;2022-12-18T17:04:24;2.30;99.90
52267;DHT22;38223;50.940;4.034;2022-12-18T17:06:52;2.30;99.90
52267;DHT22;38223;50.940;4.034;2022-12-18T17:09:23;2.20;99.90
52267;DHT22;38223;50.940;4.034;2022-12-18T17:11:59;2.10;99.90
52267;DHT22;38223;50.940;4.034;2022-12-18T17:14:29;2.20;99.90
52267;DHT22;38223;50.940;4.034;2022-12-18T17:17:02;2.20;99.90
52267;DHT22;38223;50.940;4.034;2022-12-18T17:19:38;2.20;99.90
52267;DHT22;38223;50.940;4.034;2022-12-18T17:22:11;2.20;99.90
52267;DHT22;38223;50.940;4.034;2022-12-18T17:24:40;2.20;99.90
52267;DHT22;38223;50.940;4.034;2022-12-18T17:27:13;2.20;99.90
52267;DHT22;38223;50.940;4.034;2022-12-18T17:29:43;2.20;99.90
52267;DHT22;38223;50.940;4.034;2022-12-18T17:32:20;2.20;99.90
52267;DHT22;38223;50.940;4.034;2022-12-18T17:34:50;2.20;99.90
52267;DHT22;38223;50.940;4.034;2022-12-18T17:37:22;2.20;99.90
52267;DHT22;38223;50.940;4.034;2022-12-18T17:39:55;2.30;99.90
52267;DHT22;38223;50.940;4.034;2022-12-18T17:42:30;2.20;99.90